sensor_id;sensor_type;location;lat;lon;timestamp;P1;durP1;ratioP1;P2;durP2;ratioP2
20945;SDS011;10632;51.276;7.116;2023-04-03T00:02:09;2.43;;;0.90;;
20945;SDS011;10632;51.276;7.116;2023-04-03T00:04:36;4.90;;;1.00;;
20945;SDS011;10632;51.276;7.116;2023-04-03T00:07:03;2.67;;;1.17;;
20945;SDS011;10632;51.276;7.116;2023-04-03T00:09:30;2.27;;;0.90;;
20945;SDS011;10632;51.276;7.116;2023-04-03T00:11:57;4.93;;;1.20;;
20945;SDS011;10632;51.276;7.116;2023-04-03T00:14:24;4.33;;;1.00;;
20945;SDS011;10632;51.276;7.116;2023-04-03T00:16:52;2.70;;;1.13;;
20945;SDS011;10632;51.276;7.116;2023-04-03T00:19:20;1.77;;;1.00;;
20945;SDS011;10632;51.276;7.116;2023-04-03T00:21:47;2.37;;;0.80;;
20945;SDS011;10632;51.276;7.116;2023-04-03T00:24:15;3.70;;;1.03;;
20945;SDS011;10632;51.276;7.116;2023-04-03T00:26:42;3.13;;;0.83;;
20945;SDS011;10632;51.276;7.116;2023-04-03T00:29:09;3.13;;;1.27;;
20945;SDS011;10632;51.276;7.116;2023-04-03T00:31:36;1.77;;;0.70;;
20945;SDS011;10632;51.276;7.116;2023-04-03T00:34:03;2.70;;;1.17;;
20945;SDS011;10632;51.276;7.116;2023-04-03T00:36:31;3.00;;;0.93;;
20945;SDS011;10632;51.276;7.116;2023-04-03T00:39:01;2.13;;;1.00;;
20945;SDS011;10632;51.276;7.116;2023-04-03T00:41:28;2.30;;;1.10;;
20945;SDS011;10632;51.276;7.116;2023-04-03T00:43:54;2.97;;;1.20;;
20945;SDS011;10632;51.276;7.116;2023-04-03T00:46:21;3.00;;;1.10;;
20945;SDS011;10632;51.276;7.116;2023-04-03T00:48:48;2.13;;;0.90;;
20945;SDS011;10632;51.276;7.116;2023-04-03T00:51:16;1.83;;;0.87;;
20945;SDS011;10632;51.276;7.116;2023-04-03T00:53:49;4.33;;;1.20;;
20945;SDS011;10632;51.276;7.116;2023-04-03T00:56:19;2.90;;;1.20;;
20945;SDS011;10632;51.276;7.116;2023-04-03T00:58:51;2.90;;;0.90;;
20945;SDS011;10632;51.276;7.116;2023-04-03T01:01:21;1.93;;;1.00;;
20945;SDS011;10632;51.276;7.116;2023-04-03T01:03:50;2.30;;;1.00;;
20945;SDS011;10632;51.276;7.116;2023-04-03T01:06:19;3.20;;;1.07;;
20945;SDS011;10632;51.276;7.116;2023-04-03T01:08:50;4.07;;;1.10;;
20945;SDS011;10632;51.276;7.116;2023-04-03T01:11:18;3.83;;;1.10;;
20945;SDS011;10632;51.276;7.116;2023-04-03T01:13:45;3.03;;;1.30;;
20945;SDS011;10632;51.276;7.116;2023-04-03T01:16:14;3.93;;;1.50;;
20945;SDS011;10632;51.276;7.116;2023-04-03T01:18:41;1.97;;;1.10;;
20945;SDS011;10632;51.276;7.116;2023-04-03T01:26:57;2.23;;;0.70;;
20945;SDS011;10632;51.276;7.116;2023-04-03T01:29:25;3.13;;;1.30;;
20945;SDS011;10632;51.276;7.116;2023-04-03T01:31:54;2.03;;;0.77;;
20945;SDS011;10632;51.276;7.116;2023-04-03T01:34:22;2.20;;;0.80;;
20945;SDS011;10632;51.276;7.116;2023-04-03T01:36:50;1.93;;;0.90;;
20945;SDS011;10632;51.276;7.116;2023-04-03T01:39:18;1.93;;;0.80;;
20945;SDS011;10632;51.276;7.116;2023-04-03T01:41:46;1.87;;;0.87;;
20945;SDS011;10632;51.276;7.116;2023-04-03T01:44:13;4.17;;;1.10;;
20945;SDS011;10632;51.276;7.116;2023-04-03T01:46:40;1.37;;;0.70;;
20945;SDS011;10632;51.276;7.116;2023-04-03T01:49:09;2.10;;;0.87;;
20945;SDS011;10632;51.276;7.116;2023-04-03T01:51:37;2.80;;;0.97;;
20945;SDS011;10632;51.276;7.116;2023-04-03T01:54:04;5.00;;;1.20;;
20945;SDS011;10632;51.276;7.116;2023-04-03T01:56:31;1.83;;;0.80;;
20945;SDS011;10632;51.276;7.116;2023-04-03T01:58:58;4.47;;;1.10;;
20945;SDS011;10632;51.276;7.116;2023-04-03T02:01:25;2.10;;;0.93;;
20945;SDS011;10632;51.276;7.116;2023-04-03T02:03:52;2.00;;;0.83;;
20945;SDS011;10632;51.276;7.116;2023-04-03T02:06:20;4.30;;;1.00;;
20945;SDS011;10632;51.276;7.116;2023-04-03T02:08:47;3.50;;;1.07;;
20945;SDS011;10632;51.276;7.116;2023-04-03T02:11:14;2.97;;;1.10;;
20945;SDS011;10632;51.276;7.116;2023-04-03T02:13:41;1.63;;;0.70;;
20945;SDS011;10632;51.276;7.116;2023-04-03T02:16:08;4.07;;;1.20;;
20945;SDS011;10632;51.276;7.116;2023-04-03T02:18:36;2.50;;;0.90;;
20945;SDS011;10632;51.276;7.116;2023-04-03T02:21:04;3.97;;;1.00;;
20945;SDS011;10632;51.276;7.116;2023-04-03T02:23:33;2.07;;;0.90;;
20945;SDS011;10632;51.276;7.116;2023-04-03T02:26:08;1.50;;;0.80;;
20945;SDS011;10632;51.276;7.116;2023-04-03T02:28:36;1.03;;;0.60;;
20945;SDS011;10632;51.276;7.116;2023-04-03T02:31:04;1.13;;;0.60;;
20945;SDS011;10632;51.276;7.116;2023-04-03T02:33:34;1.90;;;0.73;;
20945;SDS011;10632;51.276;7.116;2023-04-03T02:36:02;1.93;;;0.97;;
20945;SDS011;10632;51.276;7.116;2023-04-03T02:38:30;5.63;;;0.90;;
20945;SDS011;10632;51.276;7.116;2023-04-03T02:41:00;1.60;;;0.73;;
20945;SDS011;10632;51.276;7.116;2023-04-03T02:43:27;2.53;;;0.97;;
20945;SDS011;10632;51.276;7.116;2023-04-03T02:45:54;3.07;;;1.17;;
20945;SDS011;10632;51.276;7.116;2023-04-03T02:48:21;2.03;;;0.90;;
20945;SDS011;10632;51.276;7.116;2023-04-03T02:50:48;1.97;;;0.80;;
20945;SDS011;10632;51.276;7.116;2023-04-03T02:53:15;5.80;;;0.90;;
20945;SDS011;10632;51.276;7.116;2023-04-03T02:55:44;2.00;;;0.97;;
20945;SDS011;10632;51.276;7.116;2023-04-03T02:58:11;3.17;;;0.77;;
20945;SDS011;10632;51.276;7.116;2023-04-03T03:00:38;3.67;;;0.97;;
20945;SDS011;10632;51.276;7.116;2023-04-03T03:03:08;2.60;;;1.10;;
20945;SDS011;10632;51.276;7.116;2023-04-03T03:05:35;2.53;;;0.93;;
20945;SDS011;10632;51.276;7.116;2023-04-03T03:08:02;2.00;;;1.07;;
20945;SDS011;10632;51.276;7.116;2023-04-03T03:10:29;3.37;;;1.30;;
20945;SDS011;10632;51.276;7.116;2023-04-03T03:12:57;1.70;;;0.90;;
20945;SDS011;10632;51.276;7.116;2023-04-03T03:15:24;2.03;;;0.80;;
20945;SDS011;10632;51.276;7.116;2023-04-03T03:17:51;2.00;;;1.10;;
20945;SDS011;10632;51.276;7.116;2023-04-03T03:20:18;2.97;;;1.07;;
20945;SDS011;10632;51.276;7.116;2023-04-03T03:22:45;2.03;;;0.70;;
20945;SDS011;10632;51.276;7.116;2023-04-03T03:25:12;6.33;;;1.07;;
20945;SDS011;10632;51.276;7.116;2023-04-03T03:27:40;0.80;;;0.57;;
20945;SDS011;10632;51.276;7.116;2023-04-03T03:30:08;2.23;;;0.70;;
20945;SDS011;10632;51.276;7.116;2023-04-03T03:32:36;11.20;;;0.63;;
20945;SDS011;10632;51.276;7.116;2023-04-03T03:35:03;4.17;;;0.90;;
20945;SDS011;10632;51.276;7.116;2023-04-03T03:37:30;1.43;;;0.90;;
20945;SDS011;10632;51.276;7.116;2023-04-03T03:39:57;1.97;;;0.80;;
20945;SDS011;10632;51.276;7.116;2023-04-03T03:42:24;4.43;;;1.00;;
20945;SDS011;10632;51.276;7.116;2023-04-03T03:44:51;5.43;;;0.70;;
20945;SDS011;10632;51.276;7.116;2023-04-03T03:47:19;3.53;;;0.70;;
20945;SDS011;10632;51.276;7.116;2023-04-03T03:49:46;1.27;;;0.70;;
20945;SDS011;10632;51.276;7.116;2023-04-03T03:52:13;2.87;;;0.80;;
20945;SDS011;10632;51.276;7.116;2023-04-03T03:54:40;1.10;;;0.60;;
20945;SDS011;10632;51.276;7.116;2023-04-03T03:57:07;5.60;;;1.03;;
20945;SDS011;10632;51.276;7.116;2023-04-03T03:59:34;2.73;;;1.07;;
20945;SDS011;10632;51.276;7.116;2023-04-03T04:02:01;1.43;;;0.67;;
20945;SDS011;10632;51.276;7.116;2023-04-03T04:04:30;2.63;;;0.70;;
20945;SDS011;10632;51.276;7.116;2023-04-03T04:06:57;2.87;;;0.90;;
20945;SDS011;10632;51.276;7.116;2023-04-03T04:09:25;1.43;;;0.60;;
20945;SDS011;10632;51.276;7.116;2023-04-03T04:11:52;1.23;;;0.67;;
20945;SDS011;10632;51.276;7.116;2023-04-03T04:14:19;2.27;;;0.87;;
20945;SDS011;10632;51.276;7.116;2023-04-03T04:16:46;1.23;;;0.80;;
20945;SDS011;10632;51.276;7.116;2023-04-03T04:19:14;1.67;;;0.80;;
20945;SDS011;10632;51.276;7.116;2023-04-03T04:21:42;2.33;;;0.70;;
20945;SDS011;10632;51.276;7.116;2023-04-03T04:24:09;2.30;;;0.93;;
20945;SDS011;10632;51.276;7.116;2023-04-03T04:26:38;1.33;;;0.60;;
20945;SDS011;10632;51.276;7.116;2023-04-03T04:29:05;0.83;;;0.50;;
20945;SDS011;10632;51.276;7.116;2023-04-03T04:31:32;4.20;;;0.70;;
20945;SDS011;10632;51.276;7.116;2023-04-03T04:33:59;1.97;;;0.77;;
20945;SDS011;10632;51.276;7.116;2023-04-03T04:36:26;1.40;;;0.67;;
20945;SDS011;10632;51.276;7.116;2023-04-03T04:38:54;1.27;;;0.53;;
20945;SDS011;10632;51.276;7.116;2023-04-03T04:41:23;1.97;;;0.60;;
20945;SDS011;10632;51.276;7.116;2023-04-03T04:43:51;1.83;;;0.90;;
20945;SDS011;10632;51.276;7.116;2023-04-03T04:46:18;0.73;;;0.50;;
20945;SDS011;10632;51.276;7.116;2023-04-03T04:48:45;1.03;;;0.50;;
20945;SDS011;10632;51.276;7.116;2023-04-03T04:51:13;2.33;;;0.50;;
20945;SDS011;10632;51.276;7.116;2023-04-03T04:53:40;0.97;;;0.50;;
20945;SDS011;10632;51.276;7.116;2023-04-03T04:56:09;0.77;;;0.40;;
20945;SDS011;10632;51.276;7.116;2023-04-03T04:58:36;1.20;;;0.50;;
20945;SDS011;10632;51.276;7.116;2023-04-03T05:01:04;1.47;;;0.67;;
20945;SDS011;10632;51.276;7.116;2023-04-03T05:03:32;1.03;;;0.30;;
20945;SDS011;10632;51.276;7.116;2023-04-03T05:05:59;0.77;;;0.30;;
20945;SDS011;10632;51.276;7.116;2023-04-03T05:08:28;1.10;;;0.70;;
20945;SDS011;10632;51.276;7.116;2023-04-03T05:10:56;1.20;;;0.60;;
20945;SDS011;10632;51.276;7.116;2023-04-03T05:13:24;0.77;;;0.40;;
20945;SDS011;10632;51.276;7.116;2023-04-03T05:15:51;0.47;;;0.30;;
20945;SDS011;10632;51.276;7.116;2023-04-03T05:18:18;4.00;;;0.47;;
20945;SDS011;10632;51.276;7.116;2023-04-03T05:20:45;1.03;;;0.50;;
20945;SDS011;10632;51.276;7.116;2023-04-03T05:23:15;1.50;;;0.50;;
20945;SDS011;10632;51.276;7.116;2023-04-03T05:25:42;1.37;;;0.53;;
20945;SDS011;10632;51.276;7.116;2023-04-03T05:28:10;2.20;;;0.40;;
20945;SDS011;10632;51.276;7.116;2023-04-03T05:30:38;0.73;;;0.37;;
20945;SDS011;10632;51.276;7.116;2023-04-03T05:33:05;3.10;;;0.50;;
20945;SDS011;10632;51.276;7.116;2023-04-03T05:35:32;1.60;;;0.53;;
20945;SDS011;10632;51.276;7.116;2023-04-03T05:38:01;0.67;;;0.40;;
20945;SDS011;10632;51.276;7.116;2023-04-03T05:40:28;1.07;;;0.43;;
20945;SDS011;10632;51.276;7.116;2023-04-03T05:42:55;1.80;;;0.40;;
20945;SDS011;10632;51.276;7.116;2023-04-03T05:45:24;1.13;;;0.50;;
20945;SDS011;10632;51.276;7.116;2023-04-03T05:47:52;0.70;;;0.30;;
20945;SDS011;10632;51.276;7.116;2023-04-03T05:50:19;1.77;;;0.70;;
20945;SDS011;10632;51.276;7.116;2023-04-03T05:52:46;1.33;;;0.40;;
20945;SDS011;10632;51.276;7.116;2023-04-03T05:55:15;2.63;;;0.57;;
20945;SDS011;10632;51.276;7.116;2023-04-03T05:57:46;3.20;;;0.70;;
20945;SDS011;10632;51.276;7.116;2023-04-03T06:00:13;1.50;;;0.50;;
20945;SDS011;10632;51.276;7.116;2023-04-03T06:02:41;0.70;;;0.30;;
20945;SDS011;10632;51.276;7.116;2023-04-03T06:05:10;1.93;;;0.60;;
20945;SDS011;10632;51.276;7.116;2023-04-03T06:07:38;0.90;;;0.40;;
20945;SDS011;10632;51.276;7.116;2023-04-03T06:10:05;0.83;;;0.33;;
20945;SDS011;10632;51.276;7.116;2023-04-03T06:12:33;2.03;;;0.90;;
20945;SDS011;10632;51.276;7.116;2023-04-03T06:15:00;2.30;;;0.70;;
20945;SDS011;10632;51.276;7.116;2023-04-03T06:17:28;4.53;;;0.50;;
20945;SDS011;10632;51.276;7.116;2023-04-03T06:19:56;2.00;;;0.70;;
20945;SDS011;10632;51.276;7.116;2023-04-03T06:22:25;1.90;;;0.43;;
20945;SDS011;10632;51.276;7.116;2023-04-03T06:24:56;3.23;;;0.60;;
20945;SDS011;10632;51.276;7.116;2023-04-03T06:27:26;1.73;;;0.43;;
20945;SDS011;10632;51.276;7.116;2023-04-03T06:29:53;1.50;;;0.70;;
20945;SDS011;10632;51.276;7.116;2023-04-03T06:32:19;2.80;;;0.33;;
20945;SDS011;10632;51.276;7.116;2023-04-03T06:34:46;0.73;;;0.37;;
20945;SDS011;10632;51.276;7.116;2023-04-03T06:37:14;2.13;;;0.63;;
20945;SDS011;10632;51.276;7.116;2023-04-03T06:39:44;1.73;;;0.60;;
20945;SDS011;10632;51.276;7.116;2023-04-03T06:42:11;8.17;;;1.03;;
20945;SDS011;10632;51.276;7.116;2023-04-03T06:44:38;0.97;;;0.40;;
20945;SDS011;10632;51.276;7.116;2023-04-03T06:47:05;1.27;;;0.60;;
20945;SDS011;10632;51.276;7.116;2023-04-03T06:49:33;1.93;;;0.60;;
20945;SDS011;10632;51.276;7.116;2023-04-03T06:52:02;2.30;;;0.50;;
20945;SDS011;10632;51.276;7.116;2023-04-03T06:54:29;1.23;;;0.60;;
20945;SDS011;10632;51.276;7.116;2023-04-03T06:56:58;1.60;;;0.53;;
20945;SDS011;10632;51.276;7.116;2023-04-03T06:59:25;0.47;;;0.27;;
20945;SDS011;10632;51.276;7.116;2023-04-03T07:01:52;0.90;;;0.40;;
20945;SDS011;10632;51.276;7.116;2023-04-03T07:04:19;2.17;;;0.60;;
20945;SDS011;10632;51.276;7.116;2023-04-03T07:06:46;2.57;;;0.60;;
20945;SDS011;10632;51.276;7.116;2023-04-03T07:09:14;2.00;;;0.60;;
20945;SDS011;10632;51.276;7.116;2023-04-03T07:11:41;1.00;;;0.50;;
20945;SDS011;10632;51.276;7.116;2023-04-03T07:14:09;1.10;;;0.50;;
20945;SDS011;10632;51.276;7.116;2023-04-03T07:16:36;1.00;;;0.40;;
20945;SDS011;10632;51.276;7.116;2023-04-03T07:19:03;2.60;;;0.70;;
20945;SDS011;10632;51.276;7.116;2023-04-03T07:21:33;0.90;;;0.50;;
20945;SDS011;10632;51.276;7.116;2023-04-03T07:24:00;1.03;;;0.33;;
20945;SDS011;10632;51.276;7.116;2023-04-03T07:26:27;3.20;;;0.30;;
20945;SDS011;10632;51.276;7.116;2023-04-03T07:28:54;2.70;;;0.67;;
20945;SDS011;10632;51.276;7.116;2023-04-03T07:31:22;0.77;;;0.30;;
20945;SDS011;10632;51.276;7.116;2023-04-03T07:33:49;3.97;;;0.40;;
20945;SDS011;10632;51.276;7.116;2023-04-03T07:36:19;1.33;;;0.40;;
20945;SDS011;10632;51.276;7.116;2023-04-03T07:38:47;2.73;;;0.50;;
20945;SDS011;10632;51.276;7.116;2023-04-03T07:41:16;1.10;;;0.57;;
20945;SDS011;10632;51.276;7.116;2023-04-03T07:43:47;0.80;;;0.37;;
20945;SDS011;10632;51.276;7.116;2023-04-03T07:46:15;1.70;;;0.37;;
20945;SDS011;10632;51.276;7.116;2023-04-03T07:48:45;2.97;;;0.97;;
20945;SDS011;10632;51.276;7.116;2023-04-03T07:51:12;1.07;;;0.30;;
20945;SDS011;10632;51.276;7.116;2023-04-03T07:53:40;1.57;;;0.40;;
20945;SDS011;10632;51.276;7.116;2023-04-03T07:56:07;5.70;;;0.67;;
20945;SDS011;10632;51.276;7.116;2023-04-03T07:58:34;2.47;;;0.70;;
20945;SDS011;10632;51.276;7.116;2023-04-03T08:01:02;1.80;;;0.50;;
20945;SDS011;10632;51.276;7.116;2023-04-03T08:03:29;0.97;;;0.50;;
20945;SDS011;10632;51.276;7.116;2023-04-03T08:06:00;2.23;;;0.53;;
20945;SDS011;10632;51.276;7.116;2023-04-03T08:08:29;2.43;;;0.40;;
20945;SDS011;10632;51.276;7.116;2023-04-03T08:10:57;2.47;;;0.37;;
20945;SDS011;10632;51.276;7.116;2023-04-03T08:13:27;0.90;;;0.40;;
20945;SDS011;10632;51.276;7.116;2023-04-03T08:15:55;2.90;;;0.50;;
20945;SDS011;10632;51.276;7.116;2023-04-03T08:18:22;2.57;;;0.40;;
20945;SDS011;10632;51.276;7.116;2023-04-03T08:20:51;1.17;;;0.43;;
20945;SDS011;10632;51.276;7.116;2023-04-03T08:23:19;1.63;;;0.50;;
20945;SDS011;10632;51.276;7.116;2023-04-03T08:25:46;0.63;;;0.40;;
20945;SDS011;10632;51.276;7.116;2023-04-03T08:28:13;2.27;;;0.80;;
20945;SDS011;10632;51.276;7.116;2023-04-03T08:30:40;3.70;;;0.60;;
20945;SDS011;10632;51.276;7.116;2023-04-03T08:33:08;4.93;;;0.63;;
20945;SDS011;10632;51.276;7.116;2023-04-03T08:35:38;1.83;;;0.50;;
20945;SDS011;10632;51.276;7.116;2023-04-03T08:38:05;3.50;;;0.40;;
20945;SDS011;10632;51.276;7.116;2023-04-03T08:40:33;1.37;;;0.50;;
20945;SDS011;10632;51.276;7.116;2023-04-03T08:43:03;1.27;;;0.50;;
20945;SDS011;10632;51.276;7.116;2023-04-03T08:45:53;3.03;;;0.50;;
20945;SDS011;10632;51.276;7.116;2023-04-03T08:48:24;0.70;;;0.40;;
20945;SDS011;10632;51.276;7.116;2023-04-03T08:50:58;0.57;;;0.33;;
20945;SDS011;10632;51.276;7.116;2023-04-03T08:53:30;1.27;;;0.43;;
20945;SDS011;10632;51.276;7.116;2023-04-03T08:56:04;1.70;;;0.53;;
20945;SDS011;10632;51.276;7.116;2023-04-03T08:58:35;0.90;;;0.40;;
20945;SDS011;10632;51.276;7.116;2023-04-03T09:01:13;2.87;;;0.60;;
20945;SDS011;10632;51.276;7.116;2023-04-03T09:03:45;3.40;;;0.57;;
20945;SDS011;10632;51.276;7.116;2023-04-03T09:06:12;2.43;;;0.47;;
20945;SDS011;10632;51.276;7.116;2023-04-03T09:08:43;3.13;;;0.47;;
20945;SDS011;10632;51.276;7.116;2023-04-03T09:11:15;0.63;;;0.30;;
20945;SDS011;10632;51.276;7.116;2023-04-03T09:13:49;1.47;;;0.50;;
20945;SDS011;10632;51.276;7.116;2023-04-03T09:16:32;2.30;;;0.67;;
20945;SDS011;10632;51.276;7.116;2023-04-03T09:19:18;2.30;;;0.30;;
20945;SDS011;10632;51.276;7.116;2023-04-03T09:21:48;2.47;;;0.73;;
20945;SDS011;10632;51.276;7.116;2023-04-03T09:24:19;1.13;;;0.40;;
20945;SDS011;10632;51.276;7.116;2023-04-03T09:26:52;2.77;;;0.50;;
20945;SDS011;10632;51.276;7.116;2023-04-03T09:29:27;0.73;;;0.40;;
20945;SDS011;10632;51.276;7.116;2023-04-03T09:31:56;1.83;;;0.45;;
20945;SDS011;10632;51.276;7.116;2023-04-03T09:34:27;1.43;;;0.60;;
20945;SDS011;10632;51.276;7.116;2023-04-03T09:36:56;2.13;;;0.70;;
20945;SDS011;10632;51.276;7.116;2023-04-03T09:39:31;3.30;;;0.33;;
20945;SDS011;10632;51.276;7.116;2023-04-03T09:42:01;1.70;;;0.60;;
20945;SDS011;10632;51.276;7.116;2023-04-03T09:44:30;3.93;;;0.50;;
20945;SDS011;10632;51.276;7.116;2023-04-03T09:46:59;1.53;;;0.40;;
20945;SDS011;10632;51.276;7.116;2023-04-03T09:49:44;3.37;;;0.80;;
20945;SDS011;10632;51.276;7.116;2023-04-03T09:52:18;3.57;;;0.70;;
20945;SDS011;10632;51.276;7.116;2023-04-03T09:54:46;3.42;;;0.98;;
20945;SDS011;10632;51.276;7.116;2023-04-03T09:57:14;1.40;;;0.57;;
20945;SDS011;10632;51.276;7.116;2023-04-03T09:59:44;4.22;;;0.55;;
20945;SDS011;10632;51.276;7.116;2023-04-03T10:02:32;2.07;;;0.60;;
20945;SDS011;10632;51.276;7.116;2023-04-03T10:05:03;2.05;;;0.55;;
20945;SDS011;10632;51.276;7.116;2023-04-03T10:07:32;1.15;;;0.50;;
20945;SDS011;10632;51.276;7.116;2023-04-03T10:10:02;2.03;;;0.65;;
20945;SDS011;10632;51.276;7.116;2023-04-03T10:12:43;2.67;;;0.40;;
20945;SDS011;10632;51.276;7.116;2023-04-03T10:15:11;0.50;;;0.20;;
20945;SDS011;10632;51.276;7.116;2023-04-03T10:17:44;2.08;;;0.35;;
20945;SDS011;10632;51.276;7.116;2023-04-03T10:20:22;0.77;;;0.40;;
20945;SDS011;10632;51.276;7.116;2023-04-03T10:23:00;0.80;;;0.40;;
20945;SDS011;10632;51.276;7.116;2023-04-03T10:25:35;0.47;;;0.30;;
20945;SDS011;10632;51.276;7.116;2023-04-03T10:28:11;2.22;;;0.40;;
20945;SDS011;10632;51.276;7.116;2023-04-03T10:30:47;1.05;;;0.30;;
20945;SDS011;10632;51.276;7.116;2023-04-03T10:33:22;2.25;;;0.38;;
20945;SDS011;10632;51.276;7.116;2023-04-03T10:36:05;0.45;;;0.20;;
20945;SDS011;10632;51.276;7.116;2023-04-03T10:38:41;0.57;;;0.20;;
20945;SDS011;10632;51.276;7.116;2023-04-03T10:41:16;0.35;;;0.10;;
20945;SDS011;10632;51.276;7.116;2023-04-03T10:43:51;0.20;;;0.10;;
20945;SDS011;10632;51.276;7.116;2023-04-03T10:46:27;0.45;;;0.13;;
20945;SDS011;10632;51.276;7.116;2023-04-03T10:49:10;2.85;;;0.30;;
20945;SDS011;10632;51.276;7.116;2023-04-03T10:51:45;0.60;;;0.15;;
20945;SDS011;10632;51.276;7.116;2023-04-03T10:54:16;0.57;;;0.15;;
20945;SDS011;10632;51.276;7.116;2023-04-03T10:56:48;0.98;;;0.40;;
20945;SDS011;10632;51.276;7.116;2023-04-03T10:59:25;0.50;;;0.20;;
20945;SDS011;10632;51.276;7.116;2023-04-03T11:01:56;0.75;;;0.30;;
20945;SDS011;10632;51.276;7.116;2023-04-03T11:04:27;1.73;;;0.32;;
20945;SDS011;10632;51.276;7.116;2023-04-03T11:06:59;0.43;;;0.10;;
20945;SDS011;10632;51.276;7.116;2023-04-03T11:09:29;0.47;;;0.22;;
20945;SDS011;10632;51.276;7.116;2023-04-03T11:12:03;0.63;;;0.28;;
20945;SDS011;10632;51.276;7.116;2023-04-03T11:14:37;0.68;;;0.20;;
20945;SDS011;10632;51.276;7.116;2023-04-03T11:17:06;1.00;;;0.25;;
20945;SDS011;10632;51.276;7.116;2023-04-03T11:19:42;2.15;;;0.40;;
20945;SDS011;10632;51.276;7.116;2023-04-03T11:22:20;1.60;;;0.10;;
20945;SDS011;10632;51.276;7.116;2023-04-03T11:24:55;1.20;;;0.30;;
20945;SDS011;10632;51.276;7.116;2023-04-03T11:27:30;1.60;;;0.40;;
20945;SDS011;10632;51.276;7.116;2023-04-03T11:30:07;0.95;;;0.38;;
20945;SDS011;10632;51.276;7.116;2023-04-03T11:35:43;2.63;;;0.40;;
20945;SDS011;10632;51.276;7.116;2023-04-03T11:38:14;1.95;;;0.40;;
20945;SDS011;10632;51.276;7.116;2023-04-03T11:40:47;1.88;;;0.43;;
20945;SDS011;10632;51.276;7.116;2023-04-03T11:43:23;2.15;;;0.30;;
20945;SDS011;10632;51.276;7.116;2023-04-03T11:45:57;0.32;;;0.20;;
20945;SDS011;10632;51.276;7.116;2023-04-03T11:48:42;0.43;;;0.10;;
20945;SDS011;10632;51.276;7.116;2023-04-03T12:06:50;1.80;;;0.32;;
20945;SDS011;10632;51.276;7.116;2023-04-03T12:12:55;0.85;;;0.28;;
20945;SDS011;10632;51.276;7.116;2023-04-03T12:18:36;1.58;;;0.30;;
20945;SDS011;10632;51.276;7.116;2023-04-03T12:21:08;2.67;;;0.40;;
20945;SDS011;10632;51.276;7.116;2023-04-03T12:23:58;1.35;;;0.40;;
20945;SDS011;10632;51.276;7.116;2023-04-03T12:26:27;0.47;;;0.22;;
20945;SDS011;10632;51.276;7.116;2023-04-03T12:29:01;0.30;;;0.15;;
20945;SDS011;10632;51.276;7.116;2023-04-03T12:31:38;1.35;;;0.38;;
20945;SDS011;10632;51.276;7.116;2023-04-03T12:34:15;0.93;;;0.40;;
20945;SDS011;10632;51.276;7.116;2023-04-03T12:36:55;3.40;;;0.40;;
20945;SDS011;10632;51.276;7.116;2023-04-03T12:39:45;1.98;;;0.60;;
20945;SDS011;10632;51.276;7.116;2023-04-03T12:42:22;0.90;;;0.28;;
20945;SDS011;10632;51.276;7.116;2023-04-03T12:45:16;1.42;;;0.40;;
20945;SDS011;10632;51.276;7.116;2023-04-03T12:47:47;1.35;;;0.30;;
20945;SDS011;10632;51.276;7.116;2023-04-03T12:50:20;1.60;;;0.40;;
20945;SDS011;10632;51.276;7.116;2023-04-03T12:52:51;1.08;;;0.40;;
20945;SDS011;10632;51.276;7.116;2023-04-03T12:55:25;1.55;;;0.40;;
20945;SDS011;10632;51.276;7.116;2023-04-03T12:57:52;7.05;;;0.80;;
20945;SDS011;10632;51.276;7.116;2023-04-03T13:00:27;1.63;;;0.40;;
20945;SDS011;10632;51.276;7.116;2023-04-03T13:02:57;1.20;;;0.40;;
20945;SDS011;10632;51.276;7.116;2023-04-03T13:05:28;1.05;;;0.40;;
20945;SDS011;10632;51.276;7.116;2023-04-03T13:07:58;1.40;;;0.40;;
20945;SDS011;10632;51.276;7.116;2023-04-03T13:10:29;1.23;;;0.47;;
20945;SDS011;10632;51.276;7.116;2023-04-03T13:12:57;0.90;;;0.45;;
20945;SDS011;10632;51.276;7.116;2023-04-03T13:15:39;2.35;;;0.43;;
20945;SDS011;10632;51.276;7.116;2023-04-03T13:18:20;0.77;;;0.40;;
20945;SDS011;10632;51.276;7.116;2023-04-03T13:20:52;0.50;;;0.20;;
20945;SDS011;10632;51.276;7.116;2023-04-03T13:23:23;1.85;;;0.43;;
20945;SDS011;10632;51.276;7.116;2023-04-03T13:25:51;2.58;;;0.50;;
20945;SDS011;10632;51.276;7.116;2023-04-03T13:28:22;0.65;;;0.30;;
20945;SDS011;10632;51.276;7.116;2023-04-03T13:31:00;0.73;;;0.40;;
20945;SDS011;10632;51.276;7.116;2023-04-03T13:33:31;1.85;;;0.40;;
20945;SDS011;10632;51.276;7.116;2023-04-03T13:36:04;3.70;;;0.30;;
20945;SDS011;10632;51.276;7.116;2023-04-03T13:38:34;1.08;;;0.43;;
20945;SDS011;10632;51.276;7.116;2023-04-03T13:41:03;1.77;;;0.45;;
20945;SDS011;10632;51.276;7.116;2023-04-03T13:43:47;1.08;;;0.40;;
20945;SDS011;10632;51.276;7.116;2023-04-03T13:46:22;1.58;;;0.40;;
20945;SDS011;10632;51.276;7.116;2023-04-03T13:48:53;2.13;;;0.50;;
20945;SDS011;10632;51.276;7.116;2023-04-03T13:51:23;1.20;;;0.40;;
20945;SDS011;10632;51.276;7.116;2023-04-03T13:53:52;1.52;;;0.50;;
20945;SDS011;10632;51.276;7.116;2023-04-03T13:56:24;2.03;;;0.45;;
20945;SDS011;10632;51.276;7.116;2023-04-03T13:59:04;4.07;;;0.43;;
20945;SDS011;10632;51.276;7.116;2023-04-03T14:01:48;1.35;;;0.47;;
20945;SDS011;10632;51.276;7.116;2023-04-03T14:04:19;1.42;;;0.47;;
20945;SDS011;10632;51.276;7.116;2023-04-03T14:06:47;4.10;;;0.50;;
20945;SDS011;10632;51.276;7.116;2023-04-03T14:09:15;1.55;;;0.30;;
20945;SDS011;10632;51.276;7.116;2023-04-03T14:11:45;1.20;;;0.50;;
20945;SDS011;10632;51.276;7.116;2023-04-03T14:14:14;2.13;;;0.38;;
20945;SDS011;10632;51.276;7.116;2023-04-03T14:16:45;2.33;;;0.50;;
20945;SDS011;10632;51.276;7.116;2023-04-03T14:19:18;4.32;;;0.40;;
20945;SDS011;10632;51.276;7.116;2023-04-03T14:21:48;1.73;;;0.50;;
20945;SDS011;10632;51.276;7.116;2023-04-03T14:24:16;2.30;;;0.50;;
20945;SDS011;10632;51.276;7.116;2023-04-03T14:26:45;2.20;;;0.40;;
20945;SDS011;10632;51.276;7.116;2023-04-03T14:29:13;1.42;;;0.40;;
20945;SDS011;10632;51.276;7.116;2023-04-03T14:31:41;2.90;;;0.40;;
20945;SDS011;10632;51.276;7.116;2023-04-03T14:34:09;1.63;;;0.50;;
20945;SDS011;10632;51.276;7.116;2023-04-03T14:36:36;1.15;;;0.40;;
20945;SDS011;10632;51.276;7.116;2023-04-03T14:39:04;1.08;;;0.40;;
20945;SDS011;10632;51.276;7.116;2023-04-03T14:41:33;3.88;;;0.50;;
20945;SDS011;10632;51.276;7.116;2023-04-03T14:44:02;1.15;;;0.38;;
20945;SDS011;10632;51.276;7.116;2023-04-03T14:46:30;1.17;;;0.30;;
20945;SDS011;10632;51.276;7.116;2023-04-03T14:49:00;1.10;;;0.50;;
20945;SDS011;10632;51.276;7.116;2023-04-03T14:51:27;5.28;;;0.63;;
20945;SDS011;10632;51.276;7.116;2023-04-03T14:53:54;0.85;;;0.35;;
20945;SDS011;10632;51.276;7.116;2023-04-03T14:56:21;2.95;;;0.40;;
20945;SDS011;10632;51.276;7.116;2023-04-03T14:58:52;1.23;;;0.35;;
20945;SDS011;10632;51.276;7.116;2023-04-03T15:01:23;1.85;;;0.50;;
20945;SDS011;10632;51.276;7.116;2023-04-03T15:03:50;2.28;;;0.40;;
20945;SDS011;10632;51.276;7.116;2023-04-03T15:06:17;2.15;;;0.43;;
20945;SDS011;10632;51.276;7.116;2023-04-03T15:08:45;1.60;;;0.40;;
20945;SDS011;10632;51.276;7.116;2023-04-03T15:11:13;1.45;;;0.50;;
20945;SDS011;10632;51.276;7.116;2023-04-03T15:13:41;5.38;;;0.68;;
20945;SDS011;10632;51.276;7.116;2023-04-03T15:16:11;1.33;;;0.30;;
20945;SDS011;10632;51.276;7.116;2023-04-03T15:18:42;1.48;;;0.45;;
20945;SDS011;10632;51.276;7.116;2023-04-03T15:21:10;4.60;;;0.50;;
20945;SDS011;10632;51.276;7.116;2023-04-03T15:23:37;2.83;;;0.50;;
20945;SDS011;10632;51.276;7.116;2023-04-03T15:26:04;1.35;;;0.40;;
20945;SDS011;10632;51.276;7.116;2023-04-03T15:28:33;2.38;;;0.32;;
20945;SDS011;10632;51.276;7.116;2023-04-03T15:31:01;2.85;;;0.70;;
20945;SDS011;10632;51.276;7.116;2023-04-03T15:33:29;1.50;;;0.40;;
20945;SDS011;10632;51.276;7.116;2023-04-03T15:35:57;1.20;;;0.40;;